Iguai, Brazil
Current Conditions -  °F | °C
As of 11:00 AM on Wednesday 26 Nov 2014 (Local Time) from SBQV Reporting Station
Scattered Clouds Scattered Clouds  
Wind Chill: 81°   Ceiling: Unl
Heat Index: 82°   Visibility: 6mi
Dew Point: 64°   Wind: 8mph
Humidity: 58%   Direction: 60°ENE
Pressure: 30.09"   Gusts: NA
Location:  14.76°S, 40.09°W
Report Text: SBQV 261400Z 06007KT 9999 SCT020 27/18 Q1019
Loading
Personal Weather Stations






























Interactive Weather Map New forecast layout! Learn more

10-Day Weather Forecast

Advertisements
Track Severe Weather on mobile